Time;durP1;ratioP1;P1;durP2;ratioP2;P2;SDS_P1;SDS_P2;PMS_P1;PMS_P2;Temp;Humidity;BMP_temperature;BMP_pressure;BME280_temperature;BME280_humidity;BME280_pressure;Samples;Min_cycle;Max_cycle;Signal;HPM_P1;HPM_P2
2021/08/14 00:00:05;;;;;;;;;;;26.00;98.10;26.00;99976.00;;;;339078;28;82487;-90
2021/08/14 00:00:18;;;;;;;;;;;26.00;98.50;25.90;99977.00;;;;337922;28;95683;-91
2021/08/14 00:00:31;;;;;;;;;;;26.00;98.50;25.90;99983.00;;;;337463;28;82609;-92
2021/08/14 00:00:43;;;;;;;;;;;26.00;98.70;25.90;99970.00;;;;340126;28;96727;-91
2021/08/14 00:00:55;;;;;;;;;;;26.00;98.50;25.90;99983.00;;;;337769;28;83496;-90
2021/08/14 00:01:07;;;;;;;;;;;25.90;98.40;26.00;99979.00;;;;336929;28;95500;-91
2021/08/14 00:01:19;;;;;;;;;;;26.00;98.40;25.90;99982.00;;;;337767;28;82575;-91
2021/08/14 00:01:31;;;;;;;;;;;26.00;98.30;25.90;99982.00;;;;345289;28;96692;-90
2021/08/14 00:01:43;;;;;;;;;;;25.90;98.30;25.90;99982.00;;;;345988;28;82407;-91
2021/08/14 00:01:55;;;;;;;;;;;25.90;98.30;25.80;99975.00;;;;336884;28;95972;-90
2021/08/14 00:02:07;;;;;;;;;;;25.90;98.50;25.90;99976.00;;;;345765;28;83384;-90
2021/08/14 00:02:19;;;;;;;;;;;26.00;98.50;25.80;99983.00;;;;346688;28;95786;-91
2021/08/14 00:02:31;;;;;;;;;;;26.00;98.60;25.80;99975.00;;;;344586;28;83394;-90
2021/08/14 00:02:43;;;;;;;;;;;26.00;98.40;25.80;99977.00;;;;345226;28;97072;-91
2021/08/14 00:02:55;;;;;;;;;;;26.00;98.40;25.80;99975.00;;;;337637;28;83458;-91
2021/08/14 00:03:08;;;;;;;;;;;25.90;98.40;25.80;99976.00;;;;346387;28;95323;-92
2021/08/14 00:03:20;;;;;;;;;;;25.90;98.40;25.80;99979.00;;;;343272;28;82532;-93
2021/08/14 00:03:32;;;;;;;;;;;25.90;98.50;25.80;99972.00;;;;339591;28;94530;-91
2021/08/14 00:03:44;;;;;;;;;;;25.90;98.50;25.80;99975.00;;;;346420;28;83450;-93
2021/08/14 00:03:56;;;;;;;;;;;25.90;98.50;25.90;99979.00;;;;345218;28;95633;-92
2021/08/14 00:04:09;;;;;;;;;;;25.90;98.30;25.90;99980.00;;;;343257;28;83442;-91
2021/08/14 00:04:20;;;;;;;;;;;25.90;98.20;25.90;99980.00;;;;345337;28;94889;-91
2021/08/14 00:04:32;;;;;;;;;;;25.90;98.10;25.90;99982.00;;;;343198;28;83444;-91
2021/08/14 00:04:44;;;;;;;;;;;25.90;98.10;25.90;99981.00;;;;344860;28;95852;-91
2021/08/14 00:04:56;;;;;;;;;;;25.90;98.10;25.90;99977.00;;;;343127;28;83458;-91
2021/08/14 00:05:08;;;;;;;;;;;25.90;98.10;25.90;99979.00;;;;335507;29;97235;-91
2021/08/14 00:05:20;;;;;;;;;;;25.90;98.00;25.90;99976.00;;;;346018;28;82529;-91
2021/08/14 00:05:32;;;;;;;;;;;25.90;98.10;25.90;99981.00;;;;343896;28;96660;-90
2021/08/14 00:05:45;;;;;;;;;;;25.90;98.10;25.90;99980.00;;;;344503;28;83315;-92
2021/08/14 00:05:57;;;;;;;;;;;25.90;98.10;25.90;99980.00;;;;343725;28;97276;-90
2021/08/14 00:06:09;;;;;;;;;;;25.90;98.10;25.90;99978.00;;;;337384;28;82560;-90
2021/08/14 00:06:21;;;;;;;;;;;25.90;98.00;25.90;99977.00;;;;345635;28;95534;-91
2021/08/14 00:06:32;;;;;;;;;;;25.90;98.00;25.90;99980.00;;;;345644;28;83629;-91
2021/08/14 00:06:44;;;;;;;;;;;25.90;98.10;25.90;99978.00;;;;335555;29;95874;-90
2021/08/14 00:06:56;;;;;;;;;;;25.90;98.10;25.90;99981.00;;;;336429;28;82499;-91
2021/08/14 00:07:08;;;;;;;;;;;25.90;98.20;26.00;99977.00;;;;335499;29;95610;-91
2021/08/14 00:07:20;;;;;;;;;;;25.90;98.30;26.10;99977.00;;;;336169;29;83477;-91
2021/08/14 00:07:32;;;;;;;;;;;25.90;98.50;26.00;99975.00;;;;343879;28;96590;-90
2021/08/14 00:07:44;;;;;;;;;;;25.90;98.50;26.00;99975.00;;;;345948;28;83437;-92
2021/08/14 00:07:56;;;;;;;;;;;25.90;98.60;26.00;99980.00;;;;343687;28;95548;-92
2021/08/14 00:08:07;;;;;;;;;;;26.00;98.60;26.00;99972.00;;;;343300;28;83419;-92
2021/08/14 00:08:19;;;;;;;;;;;25.90;98.50;25.90;99981.00;;;;335770;29;95422;-89
2021/08/14 00:08:31;;;;;;;;;;;25.90;98.50;26.00;99977.00;;;;343201;28;82597;-90
2021/08/14 00:08:46;;;;;;;;;;;25.90;98.40;26.00;99979.00;;;;345223;28;96296;-90
2021/08/14 00:08:57;;;;;;;;;;;25.90;98.40;26.00;99982.00;;;;339013;28;83401;-91
2021/08/14 00:09:09;;;;;;;;;;;25.90;98.40;26.00;99979.00;;;;344843;28;95589;-91
2021/08/14 00:09:21;;;;;;;;;;;25.90;98.50;26.00;99978.00;;;;344107;28;83441;-90
2021/08/14 00:09:37;;;;;;;;;;;25.90;98.40;26.00;99969.00;;;;334353;29;97073;-90
2021/08/14 00:09:49;;;;;;;;;;;25.90;98.40;26.00;99975.00;;;;343056;28;83513;-91
2021/08/14 00:10:01;;;;;;;;;;;25.90;98.30;26.00;99980.00;;;;342596;28;95465;-90
2021/08/14 00:10:13;;;;;;;;;;;25.90;98.40;26.00;99975.00;;;;343313;28;83439;-93
2021/08/14 00:10:25;;;;;;;;;;;25.90;98.40;26.00;99979.00;;;;346512;28;95880;-91
2021/08/14 00:10:37;;;;;;;;;;;26.00;98.50;26.00;99977.00;;;;337622;28;83541;-90
2021/08/14 00:10:48;;;;;;;;;;;25.90;98.30;25.90;99974.00;;;;343883;28;95924;-90
2021/08/14 00:11:00;;;;;;;;;;;26.00;98.50;26.00;99982.00;;;;347361;28;83414;-90
2021/08/14 00:11:12;;;;;;;;;;;25.90;98.50;25.90;99976.00;;;;346484;28;95438;-90
2021/08/14 00:11:24;;;;;;;;;;;25.90;98.40;25.90;99976.00;;;;343057;28;83935;-90
2021/08/14 00:11:36;;;;;;;;;;;25.90;98.50;25.90;99973.00;;;;338301;28;95266;-91
2021/08/14 00:11:48;;;;;;;;;;;25.90;98.40;25.90;99971.00;;;;345894;28;83379;-91
2021/08/14 00:12:00;;;;;;;;;;;25.90;98.60;26.00;99975.00;;;;343853;28;95885;-91
2021/08/14 00:12:12;;;;;;;;;;;25.90;98.50;25.90;99976.00;;;;337314;28;83804;-91
2021/08/14 00:12:24;;;;;;;;;;;25.90;98.60;26.00;99969.00;;;;346444;28;95099;-90
2021/08/14 00:12:36;;;;;;;;;;;25.90;98.50;25.90;99970.00;;;;346086;28;82435;-90
2021/08/14 00:12:48;;;;;;;;;;;25.90;98.50;25.90;99973.00;;;;338202;28;96854;-91
2021/08/14 00:13:00;;;;;;;;;;;25.90;98.50;25.80;99976.00;;;;336404;28;82358;-90
2021/08/14 00:13:12;;;;;;;;;;;25.90;98.60;25.80;99971.00;;;;336682;28;96216;-91
2021/08/14 00:13:24;;;;;;;;;;;25.90;98.70;25.80;99980.00;;;;343817;28;82533;-92
2021/08/14 00:13:35;;;;;;;;;;;25.90;98.60;25.80;99968.00;;;;344271;28;95284;-89
2021/08/14 00:13:47;;;;;;;;;;;25.90;98.70;25.80;99972.00;;;;344571;28;83382;-91
2021/08/14 00:13:59;;;;;;;;;;;25.90;98.70;25.80;99970.00;;;;342477;28;96761;-91
2021/08/14 00:14:11;;;;;;;;;;;25.90;98.60;25.80;99967.00;;;;336418;29;83445;-90
2021/08/14 00:14:23;;;;;;;;;;;25.90;98.50;25.80;99968.00;;;;343823;28;95795;-91
2021/08/14 00:14:35;;;;;;;;;;;25.90;98.60;25.70;99965.00;;;;344698;28;82388;-91
2021/08/14 00:14:51;;;;;;;;;;;25.90;98.60;25.70;99965.00;;;;334347;29;96539;-91
2021/08/14 00:15:03;;;;;;;;;;;25.90;98.70;25.70;99968.00;;;;338865;28;82635;-91
2021/08/14 00:15:15;;;;;;;;;;;25.90;98.80;25.60;99969.00;;;;336253;28;95674;-91
2021/08/14 00:15:27;;;;;;;;;;;25.90;98.80;25.60;99965.00;;;;346666;28;82303;-91
2021/08/14 00:15:39;;;;;;;;;;;25.80;98.90;25.70;99963.00;;;;345157;28;96844;-92
2021/08/14 00:15:51;;;;;;;;;;;25.90;98.80;25.70;99962.00;;;;336069;28;83504;-90
2021/08/14 00:16:03;;;;;;;;;;;25.80;98.70;25.70;99969.00;;;;346489;28;94887;-91
2021/08/14 00:16:15;;;;;;;;;;;25.80;98.60;25.80;99965.00;;;;344682;28;82454;-91
2021/08/14 00:16:27;;;;;;;;;;;25.90;98.50;25.80;99965.00;;;;336963;28;95895;-91
2021/08/14 00:16:39;;;;;;;;;;;25.80;98.40;25.80;99965.00;;;;347407;28;83321;-91
2021/08/14 00:16:51;;;;;;;;;;;25.80;98.50;25.80;99958.00;;;;345188;28;96901;-90
2021/08/14 00:17:03;;;;;;;;;;;25.80;98.70;25.80;99965.00;;;;344589;28;83446;-90
2021/08/14 00:17:15;;;;;;;;;;;25.80;98.50;25.80;99963.00;;;;346580;28;96812;-92
2021/08/14 00:17:27;;;;;;;;;;;25.80;98.40;25.80;99963.00;;;;337748;28;83347;-90
2021/08/14 00:17:38;;;;;;;;;;;25.80;98.40;25.80;99964.00;;;;345319;28;96390;-90
2021/08/14 00:17:50;;;;;;;;;;;25.80;98.40;25.80;99962.00;;;;345847;28;83682;-90
2021/08/14 00:18:02;;;;;;;;;;;25.80;98.40;25.80;99963.00;;;;336715;28;96478;-90
2021/08/14 00:18:14;;;;;;;;;;;25.80;98.50;25.80;99966.00;;;;338257;28;82766;-90
2021/08/14 00:18:26;;;;;;;;;;;25.80;98.40;25.80;99963.00;;;;337123;28;96274;-91
2021/08/14 00:18:38;;;;;;;;;;;25.80;98.60;25.90;99967.00;;;;346158;28;83323;-91
2021/08/14 00:18:49;;;;;;;;;;;25.80;98.60;25.80;99964.00;;;;343899;28;97000;-91
2021/08/14 00:19:03;;;;;;;;;;;25.80;98.60;25.80;99968.00;;;;344702;28;83347;-91
2021/08/14 00:19:18;;;;;;;;;;;25.80;98.90;25.80;99966.00;;;;345031;28;95659;-92
2021/08/14 00:19:30;;;;;;;;;;;25.80;98.90;25.80;99963.00;;;;337821;28;82515;-90
2021/08/14 00:19:42;;;;;;;;;;;25.80;98.90;25.70;99958.00;;;;343776;28;94534;-92
2021/08/14 00:19:54;;;;;;;;;;;25.80;99.00;25.70;99962.00;;;;343278;28;83438;-90
2021/08/14 00:20:07;;;;;;;;;;;25.80;98.90;25.70;99962.00;;;;345351;28;95660;-91
2021/08/14 00:20:19;;;;;;;;;;;25.80;98.80;25.70;99961.00;;;;344590;28;83429;-93
2021/08/14 00:20:30;;;;;;;;;;;25.80;98.90;25.60;99968.00;;;;338153;28;94817;-91
2021/08/14 00:20:42;;;;;;;;;;;25.80;99.20;25.60;99961.00;;;;346044;28;83339;-91
2021/08/14 00:20:54;;;;;;;;;;;25.70;99.00;25.60;99960.00;;;;345265;28;95967;-90
2021/08/14 00:21:07;;;;;;;;;;;25.80;99.00;25.60;99962.00;;;;347279;28;83446;-91
2021/08/14 00:21:19;;;;;;;;;;;25.80;99.20;25.60;99966.00;;;;344362;28;96699;-91
2021/08/14 00:21:31;;;;;;;;;;;25.80;99.20;25.60;99963.00;;;;340259;28;83154;-90
2021/08/14 00:21:43;;;;;;;;;;;25.80;99.20;25.60;99963.00;;;;344744;28;96909;-91
2021/08/14 00:21:54;;;;;;;;;;;25.70;99.20;25.60;99963.00;;;;343396;28;83492;-90
2021/08/14 00:22:06;;;;;;;;;;;25.70;99.40;25.60;99960.00;;;;345539;28;97439;-91
2021/08/14 00:22:18;;;;;;;;;;;25.70;99.30;25.60;99961.00;;;;343814;28;82549;-90
2021/08/14 00:22:30;;;;;;;;;;;25.70;99.20;25.60;99959.00;;;;337198;28;94904;-91
2021/08/14 00:22:42;;;;;;;;;;;25.70;99.10;25.60;99963.00;;;;336658;28;82475;-91
2021/08/14 00:22:53;;;;;;;;;;;25.70;99.10;25.70;99960.00;;;;344098;28;96575;-91
2021/08/14 00:23:06;;;;;;;;;;;25.70;99.10;25.70;99966.00;;;;343413;28;83569;-91
2021/08/14 00:23:17;;;;;;;;;;;25.70;99.00;25.70;99958.00;;;;344096;28;96462;-91
2021/08/14 00:23:29;;;;;;;;;;;25.70;98.90;25.70;99950.00;;;;344157;28;84753;-91
2021/08/14 00:23:41;;;;;;;;;;;25.70;98.90;25.60;99967.00;;;;342730;28;95881;-91
2021/08/14 00:23:53;;;;;;;;;;;25.70;99.00;25.60;99967.00;;;;344651;28;83578;-90
2021/08/14 00:24:05;;;;;;;;;;;25.70;99.60;25.70;99966.00;;;;345464;28;95589;-90
2021/08/14 00:24:17;;;;;;;;;;;25.70;99.20;25.70;99967.00;;;;337962;28;83634;-90
2021/08/14 00:24:29;;;;;;;;;;;25.70;99.00;25.70;99957.00;;;;344384;28;94873;-90
2021/08/14 00:24:40;;;;;;;;;;;25.70;98.90;25.70;99952.00;;;;345114;28;83455;-90
2021/08/14 00:24:52;;;;;;;;;;;25.70;98.90;25.60;99970.00;;;;335843;28;96615;-91
2021/08/14 00:25:05;;;;;;;;;;;25.70;98.90;25.60;99960.00;;;;346088;28;83474;-91
2021/08/14 00:25:16;;;;;;;;;;;25.70;98.90;25.60;99961.00;;;;345465;28;95590;-90
2021/08/14 00:25:28;;;;;;;;;;;25.70;99.00;25.60;99959.00;;;;344743;28;82642;-90
2021/08/14 00:25:40;;;;;;;;;;;25.70;99.10;25.60;99962.00;;;;344105;28;96445;-91
2021/08/14 00:25:53;;;;;;;;;;;25.70;99.10;25.50;99957.00;;;;337727;28;83437;-91
2021/08/14 00:26:05;;;;;;;;;;;25.70;99.10;25.50;99961.00;;;;338383;28;96547;-91
2021/08/14 00:26:17;;;;;;;;;;;25.70;99.20;25.40;99965.00;;;;346199;28;83489;-90
2021/08/14 00:26:29;;;;;;;;;;;25.70;99.30;25.50;99964.00;;;;348165;27;95772;-91
2021/08/14 00:26:41;;;;;;;;;;;25.70;99.50;25.40;99954.00;;;;339020;28;83414;-91
2021/08/14 00:26:52;;;;;;;;;;;25.60;99.40;25.40;99963.00;;;;344037;28;97121;-90
2021/08/14 00:27:04;;;;;;;;;;;25.60;99.30;25.50;99961.00;;;;345974;28;83502;-91
2021/08/14 00:27:16;;;;;;;;;;;25.70;99.20;25.40;99959.00;;;;344082;28;96708;-90
2021/08/14 00:27:28;;;;;;;;;;;25.60;99.30;25.40;99960.00;;;;346663;28;83582;-90
2021/08/14 00:27:40;;;;;;;;;;;25.60;99.30;25.40;99960.00;;;;344257;28;96983;-91
2021/08/14 00:27:52;;;;;;;;;;;25.60;99.20;25.50;99960.00;;;;336482;28;83460;-91
2021/08/14 00:28:04;;;;;;;;;;;25.60;99.30;25.50;99961.00;;;;346319;28;95515;-91
2021/08/14 00:28:19;;;;;;;;;;;25.60;99.30;25.50;99962.00;;;;344837;28;82569;-91
2021/08/14 00:28:30;;;;;;;;;;;25.60;99.40;25.40;99965.00;;;;337125;28;95884;-90
2021/08/14 00:28:42;;;;;;;;;;;25.60;99.40;25.40;99959.00;;;;339253;28;82611;-91
2021/08/14 00:28:54;;;;;;;;;;;25.60;99.30;25.50;99964.00;;;;344112;28;96172;-91
2021/08/14 00:29:06;;;;;;;;;;;25.60;99.20;25.50;99965.00;;;;344732;28;83527;-90
2021/08/14 00:29:19;;;;;;;;;;;25.60;99.10;25.50;99965.00;;;;338252;28;94536;-90
2021/08/14 00:29:30;;;;;;;;;;;25.60;99.20;25.50;99953.00;;;;343331;28;83592;-90
2021/08/14 00:29:43;;;;;;;;;;;25.60;99.20;25.50;99956.00;;;;344079;28;96700;-92
2021/08/14 00:29:55;;;;;;;;;;;25.60;99.10;25.50;99961.00;;;;346102;28;83475;-90
2021/08/14 00:30:06;;;;;;;;;;;25.60;99.10;25.50;99957.00;;;;342766;28;95807;-89
2021/08/14 00:30:18;;;;;;;;;;;25.60;99.20;25.50;99960.00;;;;337932;28;83649;-90
2021/08/14 00:30:30;;;;;;;;;;;25.60;99.20;25.40;99953.00;;;;338030;28;95728;-91
2021/08/14 00:30:42;;;;;;;;;;;25.60;99.30;25.40;99956.00;;;;340358;28;82481;-91
2021/08/14 00:30:54;;;;;;;;;;;25.60;99.50;25.40;99954.00;;;;339829;28;96947;-91
2021/08/14 00:31:06;;;;;;;;;;;25.60;99.50;25.40;99962.00;;;;340381;28;83447;-92
2021/08/14 00:31:18;;;;;;;;;;;25.60;99.50;25.40;99952.00;;;;338724;28;96388;-91
2021/08/14 00:31:30;;;;;;;;;;;25.60;99.50;25.40;99952.00;;;;339156;28;83430;-91
2021/08/14 00:31:43;;;;;;;;;;;25.60;99.50;25.40;99958.00;;;;342760;28;96035;-92
2021/08/14 00:31:55;;;;;;;;;;;25.60;99.30;25.40;99959.00;;;;339124;28;83599;-91
2021/08/14 00:32:07;;;;;;;;;;;25.60;99.20;25.50;99960.00;;;;345515;28;95367;-90
2021/08/14 00:32:19;;;;;;;;;;;25.60;99.10;25.50;99962.00;;;;339114;28;83480;-91
2021/08/14 00:32:30;;;;;;;;;;;25.50;99.10;25.50;99957.00;;;;338315;28;96383;-90
2021/08/14 00:32:51;;;;;;;;;;;25.60;99.40;25.50;99963.00;;;;339281;28;83520;-91
2021/08/14 00:33:04;;;;;;;;;;;25.60;99.00;25.50;99960.00;;;;338432;28;96459;-91
2021/08/14 00:33:16;;;;;;;;;;;25.60;99.30;25.50;99964.00;;;;339752;28;83610;-91
2021/08/14 00:33:28;;;;;;;;;;;25.60;99.30;25.50;99954.00;;;;341506;28;96935;-93
2021/08/14 00:33:40;;;;;;;;;;;25.60;99.50;25.40;99957.00;;;;346220;28;83286;-91
2021/08/14 00:33:51;;;;;;;;;;;25.50;99.50;25.40;99955.00;;;;345334;28;95762;-90
2021/08/14 00:34:03;;;;;;;;;;;25.60;99.50;25.40;99950.00;;;;344883;28;82461;-90
2021/08/14 00:34:15;;;;;;;;;;;25.60;99.50;25.40;99959.00;;;;337105;28;95135;-90
2021/08/14 00:34:27;;;;;;;;;;;25.50;99.70;25.40;99955.00;;;;338924;28;84138;-91
2021/08/14 00:34:39;;;;;;;;;;;25.50;99.50;25.50;99966.00;;;;337159;28;95995;-90
2021/08/14 00:34:50;;;;;;;;;;;25.50;99.40;25.50;99957.00;;;;337785;28;83451;-90
2021/08/14 00:35:03;;;;;;;;;;;25.50;99.40;25.40;99954.00;;;;338422;28;97114;-93
2021/08/14 00:35:14;;;;;;;;;;;25.50;99.40;25.50;99961.00;;;;337905;28;82587;-91
2021/08/14 00:35:26;;;;;;;;;;;25.50;99.40;25.50;99961.00;;;;338447;28;95211;-91
2021/08/14 00:35:38;;;;;;;;;;;25.50;99.30;25.40;99955.00;;;;336516;28;83346;-91
2021/08/14 00:35:50;;;;;;;;;;;25.50;99.40;25.40;99961.00;;;;336850;28;95843;-90
2021/08/14 00:36:02;;;;;;;;;;;25.50;99.70;25.40;99960.00;;;;339187;28;82503;-89
2021/08/14 00:36:14;;;;;;;;;;;25.50;99.60;25.40;99954.00;;;;338395;28;94920;-90
2021/08/14 00:36:26;;;;;;;;;;;25.50;99.50;25.40;99959.00;;;;344760;28;83463;-91
2021/08/14 00:36:38;;;;;;;;;;;25.50;99.60;25.40;99960.00;;;;346718;28;93832;-91
2021/08/14 00:36:50;;;;;;;;;;;25.50;99.70;25.40;99958.00;;;;339175;28;83439;-90
2021/08/14 00:37:02;;;;;;;;;;;25.50;99.70;25.40;99956.00;;;;344061;28;96782;-90
2021/08/14 00:37:13;;;;;;;;;;;25.50;99.70;25.40;99962.00;;;;345110;28;83444;-91
2021/08/14 00:37:30;;;;;;;;;;;25.50;99.60;25.40;99954.00;;;;335844;28;95847;-90
2021/08/14 00:37:41;;;;;;;;;;;25.50;99.80;25.40;99956.00;;;;337910;28;83330;-90
2021/08/14 00:37:53;;;;;;;;;;;25.50;99.90;25.30;99963.00;;;;345384;28;96581;-91
2021/08/14 00:38:05;;;;;;;;;;;25.50;99.80;25.40;99955.00;;;;337676;28;83540;-91
2021/08/14 00:38:17;;;;;;;;;;;25.50;99.80;25.30;99954.00;;;;345408;28;95977;-91
2021/08/14 00:38:29;;;;;;;;;;;25.50;99.80;25.40;99956.00;;;;346127;28;83483;-91
2021/08/14 00:38:40;;;;;;;;;;;25.50;99.90;25.50;99960.00;;;;337187;28;94625;-91
2021/08/14 00:38:52;;;;;;;;;;;25.50;99.50;25.50;99964.00;;;;337971;28;83379;-90
2021/08/14 00:39:04;;;;;;;;;;;25.50;99.60;25.50;99962.00;;;;337103;28;96323;-91
2021/08/14 00:39:16;;;;;;;;;;;25.50;99.60;25.50;99958.00;;;;339355;28;82669;-91
2021/08/14 00:39:28;;;;;;;;;;;25.50;99.50;25.50;99966.00;;;;345516;28;96656;-91
2021/08/14 00:39:40;;;;;;;;;;;25.50;99.50;25.50;99960.00;;;;345034;28;82512;-91
2021/08/14 00:39:51;;;;;;;;;;;25.50;99.40;25.50;99962.00;;;;335676;28;95733;-90
2021/08/14 00:40:04;;;;;;;;;;;25.50;99.60;25.50;99961.00;;;;343498;28;83411;-90
2021/08/14 00:40:16;;;;;;;;;;;25.50;99.60;25.50;99960.00;;;;336464;28;95537;-91
2021/08/14 00:40:28;;;;;;;;;;;25.50;99.50;25.50;99965.00;;;;336304;28;83519;-90
2021/08/14 00:40:40;;;;;;;;;;;25.50;99.50;25.50;99962.00;;;;334584;29;95120;-90
2021/08/14 00:40:52;;;;;;;;;;;25.50;99.80;25.50;99963.00;;;;336219;28;82503;-90
2021/08/14 00:41:04;;;;;;;;;;;25.50;99.80;25.40;99956.00;;;;338416;28;96294;-91
2021/08/14 00:41:16;;;;;;;;;;;25.50;99.90;25.40;99956.00;;;;337935;28;83406;-91
2021/08/14 00:41:31;;;;;;;;;;;25.50;99.90;25.30;99962.00;;;;338467;28;96841;-89
2021/08/14 00:41:43;;;;;;;;;;;25.50;99.90;25.30;99963.00;;;;337833;28;83407;-91
2021/08/14 00:41:56;;;;;;;;;;;25.50;99.90;25.40;99951.00;;;;337052;28;95259;-90
2021/08/14 00:42:08;;;;;;;;;;;25.50;99.80;25.40;99963.00;;;;337698;28;83382;-91
2021/08/14 00:42:20;;;;;;;;;;;25.50;99.80;25.40;99962.00;;;;345538;28;97046;-92
2021/08/14 00:42:32;;;;;;;;;;;25.50;99.60;25.40;99959.00;;;;347175;27;83606;-90
2021/08/14 00:42:43;;;;;;;;;;;25.50;99.60;25.40;99958.00;;;;337799;28;95074;-90
2021/08/14 00:42:55;;;;;;;;;;;25.40;99.80;25.40;99963.00;;;;338962;28;83223;-91
2021/08/14 00:43:07;;;;;;;;;;;25.50;99.90;25.40;99958.00;;;;338196;28;94841;-91
2021/08/14 00:43:19;;;;;;;;;;;25.50;99.70;25.40;99963.00;;;;340350;28;83518;-90
2021/08/14 00:43:32;;;;;;;;;;;25.50;99.60;25.40;99958.00;;;;336288;28;94302;-91
2021/08/14 00:43:45;;;;;;;;;;;25.50;99.50;25.40;99962.00;;;;347557;27;82520;-91
2021/08/14 00:44:02;;;;;;;;;;;25.50;99.70;25.30;99964.00;;;;342786;28;94812;-90
2021/08/14 00:44:13;;;;;;;;;;;25.50;99.90;25.30;99962.00;;;;338073;28;83541;-89
2021/08/14 00:44:25;;;;;;;;;;;25.50;99.80;25.30;99965.00;;;;338416;28;95898;-90
2021/08/14 00:44:37;;;;;;;;;;;25.50;99.90;25.30;99962.00;;;;340670;28;83507;-88
2021/08/14 00:44:49;;;;;;;;;;;25.40;99.90;25.40;99959.00;;;;338534;28;94833;-91
2021/08/14 00:45:02;;;;;;;;;;;25.50;99.90;25.40;99959.00;;;;344878;28;83362;-90
2021/08/14 00:45:14;;;;;;;;;;;25.40;99.70;25.30;99963.00;;;;343918;28;96222;-90
2021/08/14 00:45:26;;;;;;;;;;;25.50;99.90;25.40;99960.00;;;;337385;28;82482;-91
2021/08/14 00:45:40;;;;;;;;;;;25.40;99.80;25.40;99962.00;;;;338497;28;95921;-91
2021/08/14 00:46:12;;;;;;;;;;;25.40;99.80;25.40;99956.00;;;;339080;28;82439;-92
2021/08/14 00:46:26;;;;;;;;;;;25.40;99.70;25.30;99961.00;;;;335730;28;96575;-91
2021/08/14 00:46:38;;;;;;;;;;;25.40;99.90;25.40;99960.00;;;;344630;28;83398;-91
2021/08/14 00:46:50;;;;;;;;;;;25.40;99.80;25.30;99963.00;;;;342679;28;96918;-91
2021/08/14 00:47:03;;;;;;;;;;;25.40;99.90;25.30;99955.00;;;;345987;28;83487;-91
2021/08/14 00:47:15;;;;;;;;;;;25.40;99.90;25.20;99959.00;;;;345462;28;95876;-90
2021/08/14 00:47:27;;;;;;;;;;;25.40;99.90;25.20;99961.00;;;;339088;28;83401;-91
2021/08/14 00:47:43;;;;;;;;;;;25.40;99.90;25.30;99961.00;;;;346753;28;96478;-91
2021/08/14 00:47:54;;;;;;;;;;;25.40;99.90;25.30;99953.00;;;;343427;28;82556;-90
2021/08/14 00:48:09;;;;;;;;;;;25.40;99.90;25.30;99962.00;;;;338233;28;95899;-90
2021/08/14 00:48:21;;;;;;;;;;;25.40;99.90;25.30;99962.00;;;;348064;27;82554;-90
2021/08/14 00:48:34;;;;;;;;;;;25.40;99.80;25.40;99957.00;;;;344084;28;95653;-90
2021/08/14 00:48:46;;;;;;;;;;;25.40;99.70;25.50;99960.00;;;;344308;28;83559;-90
2021/08/14 00:48:58;;;;;;;;;;;25.40;99.90;25.50;99956.00;;;;345521;28;95775;-91
2021/08/14 00:49:10;;;;;;;;;;;25.40;99.90;25.50;99962.00;;;;337866;28;82531;-90
2021/08/14 00:49:22;;;;;;;;;;;25.40;99.90;25.50;99962.00;;;;342739;28;94585;-90
2021/08/14 00:49:34;;;;;;;;;;;25.40;99.90;25.60;99955.00;;;;345718;28;83585;-91
2021/08/14 00:49:46;;;;;;;;;;;25.40;99.90;25.60;99955.00;;;;335699;28;96285;-91
2021/08/14 00:49:58;;;;;;;;;;;25.50;99.90;25.50;99965.00;;;;346097;28;83399;-91
2021/08/14 00:50:11;;;;;;;;;;;25.50;99.90;25.50;99959.00;;;;344123;28;96155;-90
2021/08/14 00:50:22;;;;;;;;;;;25.40;99.80;25.40;99956.00;;;;337911;28;83432;-91
2021/08/14 00:50:35;;;;;;;;;;;25.50;99.90;25.40;99953.00;;;;344002;28;95642;-90
2021/08/14 00:50:57;;;;;;;;;;;25.40;99.90;25.40;99960.00;;;;344809;28;83477;-91
2021/08/14 00:51:08;;;;;;;;;;;25.40;99.90;25.40;99949.00;;;;337132;28;95540;-90
2021/08/14 00:51:20;;;;;;;;;;;25.40;99.80;25.40;99953.00;;;;337089;28;83599;-90
2021/08/14 00:51:32;;;;;;;;;;;25.40;99.80;25.40;99954.00;;;;339648;28;95162;-90
2021/08/14 00:51:44;;;;;;;;;;;25.40;99.80;25.40;99958.00;;;;346018;28;83603;-91
2021/08/14 00:51:56;;;;;;;;;;;25.40;99.90;25.40;99944.00;;;;342591;28;96850;-91
2021/08/14 00:52:07;;;;;;;;;;;25.40;99.90;25.40;99951.00;;;;345965;28;83374;-90
2021/08/14 00:52:20;;;;;;;;;;;25.40;99.90;25.40;99958.00;;;;345323;28;97252;-90
2021/08/14 00:52:31;;;;;;;;;;;25.40;99.90;25.40;99958.00;;;;336412;28;83508;-91
2021/08/14 00:52:43;;;;;;;;;;;25.40;99.90;25.30;99950.00;;;;345485;28;96746;-90
2021/08/14 00:52:55;;;;;;;;;;;25.40;99.90;25.40;99956.00;;;;346347;28;83380;-91
2021/08/14 00:53:07;;;;;;;;;;;25.40;99.90;25.30;99958.00;;;;337087;28;95521;-91
2021/08/14 00:53:19;;;;;;;;;;;25.40;99.90;25.30;99957.00;;;;336669;28;83477;-91
2021/08/14 00:53:31;;;;;;;;;;;25.40;99.90;25.30;99958.00;;;;344736;28;94682;-90
2021/08/14 00:53:43;;;;;;;;;;;25.40;99.90;25.30;99953.00;;;;338046;28;82598;-91
2021/08/14 00:53:55;;;;;;;;;;;25.40;99.90;25.20;99955.00;;;;335799;28;94806;-90
2021/08/14 00:54:06;;;;;;;;;;;25.40;99.90;25.30;99954.00;;;;344810;28;83451;-90
2021/08/14 00:54:18;;;;;;;;;;;25.40;99.90;25.30;99957.00;;;;342863;28;101047;-91
2021/08/14 00:54:30;;;;;;;;;;;25.40;99.90;25.30;99955.00;;;;337813;28;83450;-90
2021/08/14 00:54:42;;;;;;;;;;;25.30;99.90;25.30;99951.00;;;;337025;28;96303;-90
2021/08/14 00:54:54;;;;;;;;;;;25.40;99.90;25.30;99958.00;;;;337688;28;83477;-91
2021/08/14 00:55:07;;;;;;;;;;;25.40;99.90;25.30;99953.00;;;;337093;28;95781;-90
2021/08/14 00:55:19;;;;;;;;;;;25.40;99.90;25.30;99954.00;;;;340100;28;83630;-91
2021/08/14 00:55:32;;;;;;;;;;;25.30;99.90;25.20;99959.00;;;;345443;28;95462;-90
2021/08/14 00:55:44;;;;;;;;;;;25.40;99.90;25.30;99953.00;;;;346225;28;82542;-90
2021/08/14 00:55:56;;;;;;;;;;;25.30;99.90;25.30;99953.00;;;;337009;28;95256;-90
2021/08/14 00:56:07;;;;;;;;;;;25.30;99.90;25.30;99954.00;;;;344666;28;82731;-89
2021/08/14 00:56:24;;;;;;;;;;;25.30;99.90;25.30;99956.00;;;;342593;28;96944;-90
2021/08/14 00:56:36;;;;;;;;;;;25.40;99.90;25.30;99953.00;;;;344652;28;82528;-91
2021/08/14 00:56:48;;;;;;;;;;;25.40;99.90;25.40;99957.00;;;;345485;28;95263;-91
2021/08/14 00:56:59;;;;;;;;;;;25.30;99.90;25.40;99951.00;;;;336587;28;83322;-91
2021/08/14 00:57:11;;;;;;;;;;;25.40;99.90;25.30;99958.00;;;;343585;28;95492;-90
2021/08/14 00:57:23;;;;;;;;;;;25.30;99.90;25.30;99952.00;;;;346046;28;83436;-91
2021/08/14 00:57:36;;;;;;;;;;;25.30;99.90;25.20;99950.00;;;;337468;28;94225;-91
2021/08/14 00:57:48;;;;;;;;;;;25.30;99.90;25.20;99941.00;;;;339012;28;83455;-90
2021/08/14 00:57:59;;;;;;;;;;;25.30;99.90;25.20;99957.00;;;;338539;28;96047;-90
2021/08/14 00:58:12;;;;;;;;;;;25.30;99.90;25.30;99948.00;;;;337614;28;83529;-90
2021/08/14 00:58:24;;;;;;;;;;;25.30;99.90;25.40;99946.00;;;;338431;28;95203;-91
2021/08/14 00:58:36;;;;;;;;;;;25.30;99.90;25.30;99948.00;;;;337930;28;83340;-91
2021/08/14 00:58:51;;;;;;;;;;;25.30;99.90;25.10;99948.00;;;;345379;28;96762;-91
2021/08/14 00:59:05;;;;;;;;;;;25.30;99.90;25.10;99948.00;;;;347532;28;83378;-90
2021/08/14 00:59:16;;;;;;;;;;;25.30;99.90;25.10;99946.00;;;;338167;28;96417;-91
2021/08/14 00:59:28;;;;;;;;;;;25.30;99.90;25.10;99945.00;;;;343507;28;82462;-90
2021/08/14 00:59:46;;;;;;;;;;;25.30;99.90;25.10;99947.00;;;;344039;28;96183;-90
2021/08/14 01:00:02;;;;;;;;;;;25.30;99.90;25.10;99950.00;;;;344839;28;83283;-90
2021/08/14 01:00:14;;;;;;;;;;;25.30;99.90;25.10;99947.00;;;;344338;28;96673;-91
2021/08/14 01:00:26;;;;;;;;;;;25.30;99.90;25.10;99944.00;;;;346619;28;83382;-91
2021/08/14 01:00:39;;;;;;;;;;;25.30;99.90;25.20;99938.00;;;;345550;28;96051;-91
2021/08/14 01:00:51;;;;;;;;;;;25.30;99.90;25.20;99940.00;;;;346216;28;82447;-91